aviador You're here:

KCKV Decoded Metar

CLARKSVILLE in TN, USA
Report Time2017-03-23 01:52:00
UTC Time2017-03-23 02:19:06
Flight Rules vfr VFR
Wind060° at 07 kt
W.Decomp.*RWY 05: 6.9 kt HW 1.3 kt RCW
RWY 35: 2.3 kt HW 6.6 kt RCW
W.Rank060° ranks 30
Current wind is above 060° avg. (5.4)
Visibility9999 m
Phenomena:N/A
Clouds:N/A
Expected CloudBase > 5,200 ft AGL from Temp-Dew spread
CeilingNone
Temp07°C (ISA -7)
Dew Point-6°C (39% RH)
AAT1.8°C
QNH1028 hPa
Density Alt-741 ft
Elevation541 ft
Report Wrong Elevation
Raw Report
KCKV 230152Z AUTO 06007KT 10SM CLR 07/M06 A3036 RMK AO2 SLP282
T00721061=

Extra information for KCKV:More info

Metar Taf Metar & Taf Last 4 Metars F.Rules Stats Wind Profile Meteogram Temp Stats Airport Information Weather charts Add Link Nearby VenuesMetar ALERT Operation Metar Decoded Social comments

AIRNAV info for KCKV